sensor_id;sensor_type;location;lat;lon;timestamp;pressure;altitude;pressure_sealevel;temperature;humidity
22283;BME280;11310;51.528;21.204;2023-03-21T00:01:53;99826.41;;;9.13;100.00
22283;BME280;11310;51.528;21.204;2023-03-21T00:04:22;99822.94;;;9.12;100.00
22283;BME280;11310;51.528;21.204;2023-03-21T00:06:51;99825.63;;;9.11;100.00
22283;BME280;11310;51.528;21.204;2023-03-21T00:09:20;99818.75;;;9.08;100.00
22283;BME280;11310;51.528;21.204;2023-03-21T00:11:49;99822.22;;;9.09;100.00
22283;BME280;11310;51.528;21.204;2023-03-21T00:14:19;99823.06;;;9.09;100.00
22283;BME280;11310;51.528;21.204;2023-03-21T00:16:50;99817.00;;;9.09;100.00
22283;BME280;11310;51.528;21.204;2023-03-21T00:19:21;99813.59;;;9.07;100.00
22283;BME280;11310;51.528;21.204;2023-03-21T00:21:52;99817.25;;;9.03;100.00
22283;BME280;11310;51.528;21.204;2023-03-21T00:24:34;99805.16;;;9.00;100.00
22283;BME280;11310;51.528;21.204;2023-03-21T00:27:03;99813.97;;;8.98;100.00
22283;BME280;11310;51.528;21.204;2023-03-21T00:29:54;99807.16;;;8.94;100.00
22283;BME280;11310;51.528;21.204;2023-03-21T00:32:22;99809.78;;;8.94;100.00
22283;BME280;11310;51.528;21.204;2023-03-21T00:34:55;99809.03;;;8.92;100.00
22283;BME280;11310;51.528;21.204;2023-03-21T00:37:44;99812.63;;;8.89;100.00
22283;BME280;11310;51.528;21.204;2023-03-21T00:40:13;99811.75;;;8.89;100.00
22283;BME280;11310;51.528;21.204;2023-03-21T00:42:53;99816.94;;;8.90;100.00
22283;BME280;11310;51.528;21.204;2023-03-21T00:45:22;99814.38;;;8.89;100.00
22283;BME280;11310;51.528;21.204;2023-03-21T00:47:51;99811.69;;;8.90;100.00
22283;BME280;11310;51.528;21.204;2023-03-21T00:50:22;99810.88;;;8.90;100.00
22283;BME280;11310;51.528;21.204;2023-03-21T00:52:51;99810.78;;;8.91;100.00
22283;BME280;11310;51.528;21.204;2023-03-21T00:55:19;99811.69;;;8.90;100.00
22283;BME280;11310;51.528;21.204;2023-03-21T00:57:49;99805.63;;;8.90;100.00
22283;BME280;11310;51.528;21.204;2023-03-21T01:00:28;99802.22;;;8.88;100.00
22283;BME280;11310;51.528;21.204;2023-03-21T01:02:57;99808.44;;;8.85;100.00
22283;BME280;11310;51.528;21.204;2023-03-21T01:05:51;99805.88;;;8.84;100.00
22283;BME280;11310;51.528;21.204;2023-03-21T01:08:35;99812.09;;;8.81;100.00
22283;BME280;11310;51.528;21.204;2023-03-21T01:11:20;99805.16;;;8.80;100.00
22283;BME280;11310;51.528;21.204;2023-03-21T01:13:49;99809.53;;;8.80;100.00
22283;BME280;11310;51.528;21.204;2023-03-21T01:16:28;99814.91;;;8.77;100.00
22283;BME280;11310;51.528;21.204;2023-03-21T01:18:57;99807.97;;;8.76;100.00
22283;BME280;11310;51.528;21.204;2023-03-21T01:21:32;99807.19;;;8.74;100.00
22283;BME280;11310;51.528;21.204;2023-03-21T01:24:00;99797.66;;;8.73;100.00
22283;BME280;11310;51.528;21.204;2023-03-21T01:26:29;99811.63;;;8.72;100.00
22283;BME280;11310;51.528;21.204;2023-03-21T01:28:57;99804.84;;;8.68;100.00
22283;BME280;11310;51.528;21.204;2023-03-21T01:31:26;99805.94;;;8.62;100.00
22283;BME280;11310;51.528;21.204;2023-03-21T01:33:55;99802.53;;;8.60;100.00
22283;BME280;11310;51.528;21.204;2023-03-21T01:36:24;99798.28;;;8.58;100.00
22283;BME280;11310;51.528;21.204;2023-03-21T01:39:04;99807.94;;;8.56;100.00
22283;BME280;11310;51.528;21.204;2023-03-21T01:41:34;99804.63;;;8.52;100.00
22283;BME280;11310;51.528;21.204;2023-03-21T01:44:17;99794.41;;;8.46;100.00
22283;BME280;11310;51.528;21.204;2023-03-21T01:46:48;99800.47;;;8.47;100.00
22283;BME280;11310;51.528;21.204;2023-03-21T01:49:46;99805.84;;;8.44;100.00
22283;BME280;11310;51.528;21.204;2023-03-21T01:52:40;99807.66;;;8.42;100.00
22283;BME280;11310;51.528;21.204;2023-03-21T01:55:15;99805.03;;;8.42;100.00
22283;BME280;11310;51.528;21.204;2023-03-21T01:58:08;99811.09;;;8.44;100.00
22283;BME280;11310;51.528;21.204;2023-03-21T02:01:08;99804.13;;;8.43;100.00
22283;BME280;11310;51.528;21.204;2023-03-21T02:03:46;99806.69;;;8.44;100.00
22283;BME280;11310;51.528;21.204;2023-03-21T02:06:32;99802.19;;;8.48;100.00
22283;BME280;11310;51.528;21.204;2023-03-21T02:09:13;99801.41;;;8.46;100.00
22283;BME280;11310;51.528;21.204;2023-03-21T02:11:45;99800.47;;;8.47;100.00
22283;BME280;11310;51.528;21.204;2023-03-21T02:14:18;99808.47;;;8.44;100.00
22283;BME280;11310;51.528;21.204;2023-03-21T02:17:18;99805.75;;;8.45;100.00
22283;BME280;11310;51.528;21.204;2023-03-21T02:26:23;99804.13;;;8.43;100.00
22283;BME280;11310;51.528;21.204;2023-03-21T02:29:26;99800.75;;;8.41;100.00
22283;BME280;11310;51.528;21.204;2023-03-21T02:32:06;99794.66;;;8.40;100.00
22283;BME280;11310;51.528;21.204;2023-03-21T02:35:07;99797.22;;;8.42;100.00
22283;BME280;11310;51.528;21.204;2023-03-21T02:37:46;99800.69;;;8.42;100.00
22283;BME280;11310;51.528;21.204;2023-03-21T02:40:31;99794.72;;;8.39;100.00
22283;BME280;11310;51.528;21.204;2023-03-21T02:43:05;99806.09;;;8.38;100.00
22283;BME280;11310;51.528;21.204;2023-03-21T02:45:52;99796.59;;;8.35;100.00
22283;BME280;11310;51.528;21.204;2023-03-21T02:48:29;99803.53;;;8.36;100.00
22283;BME280;11310;51.528;21.204;2023-03-21T02:51:17;99794.84;;;8.36;100.00
22283;BME280;11310;51.528;21.204;2023-03-21T02:53:53;99801.97;;;8.32;100.00
22283;BME280;11310;51.528;21.204;2023-03-21T02:56:43;99795.06;;;8.30;100.00
22283;BME280;11310;51.528;21.204;2023-03-21T02:59:13;99802.16;;;8.28;100.00
22283;BME280;11310;51.528;21.204;2023-03-21T03:01:43;99803.13;;;8.25;100.00
22283;BME280;11310;51.528;21.204;2023-03-21T03:04:19;99794.31;;;8.28;100.00
22283;BME280;11310;51.528;21.204;2023-03-21T03:07:08;99802.25;;;8.25;100.00
22283;BME280;11310;51.528;21.204;2023-03-21T03:09:53;99800.72;;;8.19;100.00
22283;BME280;11310;51.528;21.204;2023-03-21T03:12:33;99793.88;;;8.17;100.00
22283;BME280;11310;51.528;21.204;2023-03-21T03:15:15;99798.06;;;8.21;100.00
22283;BME280;11310;51.528;21.204;2023-03-21T03:17:51;99790.34;;;8.18;100.00
22283;BME280;11310;51.528;21.204;2023-03-21T03:20:28;99799.09;;;8.17;100.00
22283;BME280;11310;51.528;21.204;2023-03-21T03:23:04;99800.84;;;8.16;100.00
22283;BME280;11310;51.528;21.204;2023-03-21T03:25:39;99802.59;;;8.16;100.00
22283;BME280;11310;51.528;21.204;2023-03-21T03:28:16;99810.44;;;8.16;100.00
22283;BME280;11310;51.528;21.204;2023-03-21T03:30:48;99803.44;;;8.16;100.00
22283;BME280;11310;51.528;21.204;2023-03-21T03:33:45;99804.44;;;8.14;100.00
22283;BME280;11310;51.528;21.204;2023-03-21T03:36:16;99806.25;;;8.12;100.00
22283;BME280;11310;51.528;21.204;2023-03-21T03:39:03;99807.16;;;8.11;100.00
22283;BME280;11310;51.528;21.204;2023-03-21T03:41:40;99809.81;;;8.09;100.00
22283;BME280;11310;51.528;21.204;2023-03-21T03:44:35;99795.13;;;8.07;100.00
22283;BME280;11310;51.528;21.204;2023-03-21T03:47:08;99790.94;;;8.03;100.00
22283;BME280;11310;51.528;21.204;2023-03-21T03:49:49;99793.69;;;8.00;100.00
22283;BME280;11310;51.528;21.204;2023-03-21T03:52:22;99804.19;;;7.98;100.00
22283;BME280;11310;51.528;21.204;2023-03-21T03:55:01;99794.69;;;7.96;100.00
22283;BME280;11310;51.528;21.204;2023-03-21T03:57:36;99795.63;;;7.95;100.00
22283;BME280;11310;51.528;21.204;2023-03-21T04:00:06;99802.53;;;7.96;100.00
22283;BME280;11310;51.528;21.204;2023-03-21T04:02:43;99800.94;;;7.92;100.00
22283;BME280;11310;51.528;21.204;2023-03-21T04:05:18;99803.56;;;7.92;100.00
22283;BME280;11310;51.528;21.204;2023-03-21T04:07:48;99804.47;;;7.91;100.00
22283;BME280;11310;51.528;21.204;2023-03-21T04:10:24;99799.38;;;7.88;100.00
22283;BME280;11310;51.528;21.204;2023-03-21T04:12:54;99804.47;;;7.91;100.00
22283;BME280;11310;51.528;21.204;2023-03-21T04:15:29;99804.47;;;7.91;100.00
22283;BME280;11310;51.528;21.204;2023-03-21T04:18:04;99802.78;;;7.90;100.00
22283;BME280;11310;51.528;21.204;2023-03-21T04:20:34;99801.97;;;7.88;100.00
22283;BME280;11310;51.528;21.204;2023-03-21T04:23:05;99801.97;;;7.88;100.00
22283;BME280;11310;51.528;21.204;2023-03-21T04:25:36;99802.88;;;7.87;100.00
22283;BME280;11310;51.528;21.204;2023-03-21T04:28:21;99797.66;;;7.87;100.00
22283;BME280;11310;51.528;21.204;2023-03-21T04:30:57;99801.91;;;7.89;100.00
22283;BME280;11310;51.528;21.204;2023-03-21T04:33:43;99810.63;;;7.90;100.00
22283;BME280;11310;51.528;21.204;2023-03-21T04:36:14;99806.28;;;7.89;100.00
22283;BME280;11310;51.528;21.204;2023-03-21T04:38:56;99811.50;;;7.89;100.00
22283;BME280;11310;51.528;21.204;2023-03-21T04:41:28;99816.72;;;7.89;100.00
22283;BME280;11310;51.528;21.204;2023-03-21T04:43:58;99809.69;;;7.91;100.00
22283;BME280;11310;51.528;21.204;2023-03-21T04:46:27;99807.88;;;7.93;100.00
22283;BME280;11310;51.528;21.204;2023-03-21T04:48:56;99809.59;;;7.94;100.00
22283;BME280;11310;51.528;21.204;2023-03-21T04:51:25;99808.72;;;7.93;100.00
22283;BME280;11310;51.528;21.204;2023-03-21T04:53:55;99811.28;;;7.95;100.00
22283;BME280;11310;51.528;21.204;2023-03-21T04:56:25;99799.06;;;7.95;100.00
22283;BME280;11310;51.528;21.204;2023-03-21T04:59:04;99810.44;;;7.94;100.00
22283;BME280;11310;51.528;21.204;2023-03-21T05:01:33;99803.44;;;7.95;100.00
22283;BME280;11310;51.528;21.204;2023-03-21T05:04:03;99804.22;;;7.97;100.00
22283;BME280;11310;51.528;21.204;2023-03-21T05:06:34;99800.69;;;7.98;100.00
22283;BME280;11310;51.528;21.204;2023-03-21T05:09:04;99805.88;;;7.99;100.00
22283;BME280;11310;51.528;21.204;2023-03-21T05:11:36;99807.66;;;7.99;100.00
22283;BME280;11310;51.528;21.204;2023-03-21T05:14:09;99804.13;;;8.00;100.00
22283;BME280;11310;51.528;21.204;2023-03-21T05:16:39;99811.03;;;8.01;100.00
22283;BME280;11310;51.528;21.204;2023-03-21T05:19:16;99807.41;;;8.05;100.00
22283;BME280;11310;51.528;21.204;2023-03-21T05:21:47;99804.78;;;8.05;100.00
22283;BME280;11310;51.528;21.204;2023-03-21T05:24:21;99809.91;;;8.08;100.00
22283;BME280;11310;51.528;21.204;2023-03-21T05:26:50;99811.53;;;8.10;100.00
22283;BME280;11310;51.528;21.204;2023-03-21T05:29:29;99817.59;;;8.11;100.00
22283;BME280;11310;51.528;21.204;2023-03-21T05:32:01;99821.78;;;8.15;100.00
22283;BME280;11310;51.528;21.204;2023-03-21T05:34:30;99820.88;;;8.16;100.00
22283;BME280;11310;51.528;21.204;2023-03-21T05:37:00;99824.28;;;8.18;100.00
22283;BME280;11310;51.528;21.204;2023-03-21T05:39:44;99829.47;;;8.19;100.00
22283;BME280;11310;51.528;21.204;2023-03-21T05:42:21;99826.81;;;8.21;100.00
22283;BME280;11310;51.528;21.204;2023-03-21T05:44:51;99832.78;;;8.24;100.00
22283;BME280;11310;51.528;21.204;2023-03-21T05:47:25;99834.41;;;8.27;100.00
22283;BME280;11310;51.528;21.204;2023-03-21T05:49:56;99838.78;;;8.26;100.00
22283;BME280;11310;51.528;21.204;2023-03-21T05:52:27;99835.25;;;8.27;100.00
22283;BME280;11310;51.528;21.204;2023-03-21T05:54:57;99837.81;;;8.29;100.00
22283;BME280;11310;51.528;21.204;2023-03-21T05:57:27;99840.31;;;8.32;100.00
22283;BME280;11310;51.528;21.204;2023-03-21T06:00:00;99835.84;;;8.34;100.00
22283;BME280;11310;51.528;21.204;2023-03-21T06:02:41;99848.03;;;8.35;100.00
22283;BME280;11310;51.528;21.204;2023-03-21T06:05:36;99843.59;;;8.37;100.00
22283;BME280;11310;51.528;21.204;2023-03-21T06:08:11;99845.22;;;8.39;100.00
22283;BME280;11310;51.528;21.204;2023-03-21T06:10:44;99842.56;;;8.41;100.00
22283;BME280;11310;51.528;21.204;2023-03-21T06:13:12;99847.69;;;8.44;100.00
22283;BME280;11310;51.528;21.204;2023-03-21T06:15:43;99841.53;;;8.45;100.00
22283;BME280;11310;51.528;21.204;2023-03-21T06:18:17;99844.97;;;8.45;100.00
22283;BME280;11310;51.528;21.204;2023-03-21T06:20:55;99847.47;;;8.48;100.00
22283;BME280;11310;51.528;21.204;2023-03-21T06:23:24;99845.72;;;8.49;100.00
22283;BME280;11310;51.528;21.204;2023-03-21T06:25:53;99850.03;;;8.50;100.00
22283;BME280;11310;51.528;21.204;2023-03-21T06:28:24;99849.81;;;8.54;100.00
22283;BME280;11310;51.528;21.204;2023-03-21T06:30:54;99853.19;;;8.58;100.00
22283;BME280;11310;51.528;21.204;2023-03-21T06:33:26;99857.34;;;8.62;100.00
22283;BME280;11310;51.528;21.204;2023-03-21T06:35:56;99854.69;;;8.63;100.00
22283;BME280;11310;51.528;21.204;2023-03-21T06:38:25;99861.56;;;8.66;100.00
22283;BME280;11310;51.528;21.204;2023-03-21T06:40:54;99865.75;;;8.70;100.00
22283;BME280;11310;51.528;21.204;2023-03-21T06:43:24;99869.16;;;8.72;100.00
22283;BME280;11310;51.528;21.204;2023-03-21T06:45:55;99866.34;;;8.76;100.00
22283;BME280;11310;51.528;21.204;2023-03-21T06:48:25;99868.78;;;8.81;100.00
22283;BME280;11310;51.528;21.204;2023-03-21T06:50:54;99869.63;;;8.81;100.00
22283;BME280;11310;51.528;21.204;2023-03-21T06:53:26;99866.84;;;8.86;100.00
22283;BME280;11310;51.528;21.204;2023-03-21T06:56:15;99865.91;;;8.87;100.00
22283;BME280;11310;51.528;21.204;2023-03-21T06:58:44;99878.00;;;8.89;100.00
22283;BME280;11310;51.528;21.204;2023-03-21T07:01:38;99874.47;;;8.90;100.00
22283;BME280;11310;51.528;21.204;2023-03-21T07:04:08;99875.28;;;8.92;100.00
22283;BME280;11310;51.528;21.204;2023-03-21T07:06:38;99876.75;;;8.98;100.00
22283;BME280;11310;51.528;21.204;2023-03-21T07:09:07;99878.34;;;9.02;100.00
22283;BME280;11310;51.528;21.204;2023-03-21T07:11:37;99883.56;;;9.02;100.00
22283;BME280;11310;51.528;21.204;2023-03-21T07:14:05;99884.50;;;9.01;100.00
22283;BME280;11310;51.528;21.204;2023-03-21T07:16:34;99880.03;;;9.03;100.00
22283;BME280;11310;51.528;21.204;2023-03-21T07:19:04;99882.47;;;9.07;100.00
22283;BME280;11310;51.528;21.204;2023-03-21T07:21:33;99879.41;;;9.18;100.00
22283;BME280;11310;51.528;21.204;2023-03-21T07:24:03;99880.84;;;9.25;100.00
22283;BME280;11310;51.528;21.204;2023-03-21T07:26:31;99880.72;;;9.28;100.00
22283;BME280;11310;51.528;21.204;2023-03-21T07:29:02;99873.91;;;9.24;100.00
22283;BME280;11310;51.528;21.204;2023-03-21T07:31:31;99874.94;;;9.20;100.00
22283;BME280;11310;51.528;21.204;2023-03-21T07:34:01;99879.59;;;9.13;100.00
22283;BME280;11310;51.528;21.204;2023-03-21T07:36:31;99880.63;;;9.09;100.00
22283;BME280;11310;51.528;21.204;2023-03-21T07:39:00;99882.66;;;9.03;100.00
22283;BME280;11310;51.528;21.204;2023-03-21T07:41:28;99881.16;;;8.97;100.00
22283;BME280;11310;51.528;21.204;2023-03-21T07:44:10;99884.75;;;8.95;100.00
22283;BME280;11310;51.528;21.204;2023-03-21T07:46:38;99880.41;;;8.94;100.00
22283;BME280;11310;51.528;21.204;2023-03-21T07:49:07;99888.16;;;8.97;100.00
22283;BME280;11310;51.528;21.204;2023-03-21T07:51:38;99881.09;;;8.99;100.00
22283;BME280;11310;51.528;21.204;2023-03-21T07:54:07;99884.44;;;9.02;100.00
22283;BME280;11310;51.528;21.204;2023-03-21T07:56:36;99892.06;;;9.07;100.00
22283;BME280;11310;51.528;21.204;2023-03-21T07:59:04;99893.81;;;9.08;100.00
22283;BME280;11310;51.528;21.204;2023-03-21T08:01:34;99901.66;;;9.08;100.00
22283;BME280;11310;51.528;21.204;2023-03-21T08:04:03;99901.44;;;9.12;100.00
22283;BME280;11310;51.528;21.204;2023-03-21T08:06:33;99898.63;;;9.17;100.00
22283;BME280;11310;51.528;21.204;2023-03-21T08:09:04;99901.13;;;9.20;100.00
22283;BME280;11310;51.528;21.204;2023-03-21T08:11:33;99896.59;;;9.23;100.00
22283;BME280;11310;51.528;21.204;2023-03-21T08:14:02;99894.66;;;9.28;100.00
22283;BME280;11310;51.528;21.204;2023-03-21T08:16:30;99900.47;;;9.35;100.00
22283;BME280;11310;51.528;21.204;2023-03-21T08:18:59;99902.38;;;9.31;100.00
22283;BME280;11310;51.528;21.204;2023-03-21T08:21:28;99901.66;;;9.28;100.00
22283;BME280;11310;51.528;21.204;2023-03-21T08:23:57;99895.72;;;9.24;100.00
22283;BME280;11310;51.528;21.204;2023-03-21T08:26:27;99905.44;;;9.21;100.00
22283;BME280;11310;51.528;21.204;2023-03-21T08:28:58;99903.84;;;9.17;100.00
22283;BME280;11310;51.528;21.204;2023-03-21T08:31:27;99910.22;;;9.11;100.00
22283;BME280;11310;51.528;21.204;2023-03-21T08:33:55;99905.81;;;9.12;100.00
22283;BME280;11310;51.528;21.204;2023-03-21T08:36:24;99903.84;;;9.17;100.00
22283;BME280;11310;51.528;21.204;2023-03-21T08:38:53;99908.91;;;9.21;100.00
22283;BME280;11310;51.528;21.204;2023-03-21T08:41:32;99907.00;;;9.25;100.00
22283;BME280;11310;51.528;21.204;2023-03-21T08:44:02;99916.44;;;9.29;100.00
22283;BME280;11310;51.528;21.204;2023-03-21T08:46:32;99908.47;;;9.32;100.00
22283;BME280;11310;51.528;21.204;2023-03-21T08:49:01;99920.34;;;9.39;100.00
22283;BME280;11310;51.528;21.204;2023-03-21T08:51:30;99922.72;;;9.45;100.00
22283;BME280;11310;51.528;21.204;2023-03-21T08:54:00;99923.16;;;9.54;100.00
22283;BME280;11310;51.528;21.204;2023-03-21T08:56:29;99923.63;;;9.64;100.00
22283;BME280;11310;51.528;21.204;2023-03-21T08:58:59;99919.69;;;9.74;100.00
22283;BME280;11310;51.528;21.204;2023-03-21T09:01:29;99926.28;;;9.82;100.00
22283;BME280;11310;51.528;21.204;2023-03-21T09:03:58;99924.28;;;9.87;100.00
22283;BME280;11310;51.528;21.204;2023-03-21T09:06:27;99921.47;;;9.92;100.00
22283;BME280;11310;51.528;21.204;2023-03-21T09:08:57;99929.84;;;10.00;100.00
22283;BME280;11310;51.528;21.204;2023-03-21T09:11:26;99934.25;;;9.99;100.00
22283;BME280;11310;51.528;21.204;2023-03-21T09:13:55;99931.69;;;9.98;100.00
22283;BME280;11310;51.528;21.204;2023-03-21T09:16:25;99931.56;;;10.01;100.00
22283;BME280;11310;51.528;21.204;2023-03-21T09:18:53;99938.22;;;10.08;100.00
22283;BME280;11310;51.528;21.204;2023-03-21T09:21:26;99938.97;;;10.11;100.00
22283;BME280;11310;51.528;21.204;2023-03-21T09:23:54;99937.81;;;10.17;100.00
22283;BME280;11310;51.528;21.204;2023-03-21T09:26:26;99940.44;;;10.17;100.00
22283;BME280;11310;51.528;21.204;2023-03-21T09:28:55;99943.69;;;10.22;100.00
22283;BME280;11310;51.528;21.204;2023-03-21T09:31:26;99944.06;;;10.33;100.00
22283;BME280;11310;51.528;21.204;2023-03-21T09:33:55;99937.78;;;10.37;100.00
22283;BME280;11310;51.528;21.204;2023-03-21T09:36:24;99937.84;;;10.35;100.00
22283;BME280;11310;51.528;21.204;2023-03-21T09:38:53;99933.72;;;10.30;100.00
22283;BME280;11310;51.528;21.204;2023-03-21T09:41:31;99941.09;;;10.40;100.00
22283;BME280;11310;51.528;21.204;2023-03-21T09:44:13;99947.75;;;10.47;100.00
22283;BME280;11310;51.528;21.204;2023-03-21T09:46:50;99948.66;;;10.46;100.00
22283;BME280;11310;51.528;21.204;2023-03-21T09:49:23;99945.47;;;10.40;100.00
22283;BME280;11310;51.528;21.204;2023-03-21T09:51:58;99947.47;;;10.35;100.00
22283;BME280;11310;51.528;21.204;2023-03-21T09:54:32;99946.75;;;10.31;100.00
22283;BME280;11310;51.528;21.204;2023-03-21T09:57:10;99951.38;;;10.26;100.00
22283;BME280;11310;51.528;21.204;2023-03-21T09:59:47;99954.13;;;10.23;100.00
22283;BME280;11310;51.528;21.204;2023-03-21T10:02:31;99949.88;;;10.21;100.00
22283;BME280;11310;51.528;21.204;2023-03-21T10:05:02;99944.06;;;10.14;100.00
22283;BME280;11310;51.528;21.204;2023-03-21T10:07:40;99948.59;;;10.11;100.00
22283;BME280;11310;51.528;21.204;2023-03-21T10:10:14;99948.66;;;10.09;100.00
22283;BME280;11310;51.528;21.204;2023-03-21T10:12:45;99952.13;;;10.10;100.00
22283;BME280;11310;51.528;21.204;2023-03-21T10:15:17;99946.91;;;10.10;100.00
22283;BME280;11310;51.528;21.204;2023-03-21T10:17:51;99944.28;;;10.10;100.00
22283;BME280;11310;51.528;21.204;2023-03-21T10:20:23;99940.78;;;10.09;100.00
22283;BME280;11310;51.528;21.204;2023-03-21T10:22:54;99945.19;;;10.09;100.00
22283;BME280;11310;51.528;21.204;2023-03-21T10:25:29;99943.34;;;10.11;100.00
22283;BME280;11310;51.528;21.204;2023-03-21T10:28:00;99937.97;;;10.14;100.00
22283;BME280;11310;51.528;21.204;2023-03-21T10:30:34;99940.59;;;10.14;100.00
22283;BME280;11310;51.528;21.204;2023-03-21T10:33:10;99947.47;;;10.16;100.00
22283;BME280;11310;51.528;21.204;2023-03-21T10:35:43;99944.78;;;10.18;100.00
22283;BME280;11310;51.528;21.204;2023-03-21T10:38:15;99942.00;;;10.21;100.00
22283;BME280;11310;51.528;21.204;2023-03-21T10:40:45;99938.38;;;10.23;100.00
22283;BME280;11310;51.528;21.204;2023-03-21T10:43:34;99937.13;;;10.32;100.00
22283;BME280;11310;51.528;21.204;2023-03-21T10:46:06;99945.41;;;10.41;100.00
22283;BME280;11310;51.528;21.204;2023-03-21T10:48:39;99942.34;;;10.50;100.00
22283;BME280;11310;51.528;21.204;2023-03-21T10:51:16;99941.78;;;10.62;100.00
22283;BME280;11310;51.528;21.204;2023-03-21T10:53:50;99945.91;;;10.68;100.00
22283;BME280;11310;51.528;21.204;2023-03-21T10:56:22;99947.44;;;10.72;100.00
22283;BME280;11310;51.528;21.204;2023-03-21T10:58:55;99948.97;;;10.76;100.00
22283;BME280;11310;51.528;21.204;2023-03-21T11:01:28;99943.81;;;10.74;100.00
22283;BME280;11310;51.528;21.204;2023-03-21T11:04:06;99935.16;;;10.72;100.00
22283;BME280;11310;51.528;21.204;2023-03-21T11:06:38;99941.13;;;10.76;100.00
22283;BME280;11310;51.528;21.204;2023-03-21T11:09:13;99941.19;;;10.74;100.00
22283;BME280;11310;51.528;21.204;2023-03-21T11:11:49;99950.69;;;10.77;100.00
22283;BME280;11310;51.528;21.204;2023-03-21T11:14:34;99948.34;;;10.71;100.00
22283;BME280;11310;51.528;21.204;2023-03-21T11:17:19;99955.22;;;10.73;100.00
22283;BME280;11310;51.528;21.204;2023-03-21T11:19:50;99951.16;;;10.68;100.00
22283;BME280;11310;51.528;21.204;2023-03-21T11:22:21;99948.78;;;10.62;100.00
22283;BME280;11310;51.528;21.204;2023-03-21T11:24:52;99946.47;;;10.56;100.00
22283;BME280;11310;51.528;21.204;2023-03-21T11:27:22;99943.22;;;10.51;100.00
22283;BME280;11310;51.528;21.204;2023-03-21T11:29:57;99938.91;;;10.50;100.00
22283;BME280;11310;51.528;21.204;2023-03-21T11:32:31;99949.22;;;10.53;100.00
22283;BME280;11310;51.528;21.204;2023-03-21T11:35:04;99951.72;;;10.56;100.00
22283;BME280;11310;51.528;21.204;2023-03-21T11:37:40;99940.28;;;10.57;100.00
22283;BME280;11310;51.528;21.204;2023-03-21T11:40:20;99947.88;;;10.63;100.00
22283;BME280;11310;51.528;21.204;2023-03-21T11:42:51;99942.47;;;10.66;100.00
22283;BME280;11310;51.528;21.204;2023-03-21T11:45:21;99950.97;;;10.71;100.00
22283;BME280;11310;51.528;21.204;2023-03-21T11:47:53;99947.59;;;10.69;100.00
22283;BME280;11310;51.528;21.204;2023-03-21T11:50:30;99942.63;;;10.63;100.00
22283;BME280;11310;51.528;21.204;2023-03-21T11:53:13;99944.34;;;10.64;100.00
22283;BME280;11310;51.528;21.204;2023-03-21T11:55:53;99937.09;;;10.69;100.00
22283;BME280;11310;51.528;21.204;2023-03-21T11:58:32;99936.22;;;10.68;100.00
22283;BME280;11310;51.528;21.204;2023-03-21T12:01:09;99936.47;;;10.64;100.00
22283;BME280;11310;51.528;21.204;2023-03-21T12:03:58;99942.34;;;10.69;100.00
22283;BME280;11310;51.528;21.204;2023-03-21T12:06:34;99945.59;;;10.74;100.00
22283;BME280;11310;51.528;21.204;2023-03-21T12:09:25;99948.16;;;10.75;100.00
22283;BME280;11310;51.528;21.204;2023-03-21T12:12:05;99946.03;;;10.65;100.00
22283;BME280;11310;51.528;21.204;2023-03-21T12:14:43;99938.81;;;10.51;100.00
22283;BME280;11310;51.528;21.204;2023-03-21T12:17:25;99943.66;;;10.42;100.00
22283;BME280;11310;51.528;21.204;2023-03-21T12:20:09;99941.50;;;10.31;100.00
22283;BME280;11310;51.528;21.204;2023-03-21T12:22:53;99939.25;;;10.24;100.00
22283;BME280;11310;51.528;21.204;2023-03-21T12:25:30;99948.94;;;10.22;100.00
22283;BME280;11310;51.528;21.204;2023-03-21T12:28:12;99940.25;;;10.21;100.00
22283;BME280;11310;51.528;21.204;2023-03-21T12:30:59;99936.69;;;10.22;100.00
22283;BME280;11310;51.528;21.204;2023-03-21T12:33:43;99936.69;;;10.22;100.00
22283;BME280;11310;51.528;21.204;2023-03-21T12:36:25;99929.88;;;10.18;100.00
22283;BME280;11310;51.528;21.204;2023-03-21T12:39:06;99936.25;;;10.13;100.00
22283;BME280;11310;51.528;21.204;2023-03-21T12:41:43;99929.31;;;10.12;100.00
22283;BME280;11310;51.528;21.204;2023-03-21T12:44:14;99933.91;;;10.07;100.00
22283;BME280;11310;51.528;21.204;2023-03-21T12:46:44;99931.56;;;10.01;100.00
22283;BME280;11310;51.528;21.204;2023-03-21T12:49:17;99927.31;;;9.98;100.00
22283;BME280;11310;51.528;21.204;2023-03-21T12:51:51;99930.69;;;10.00;100.00
22283;BME280;11310;51.528;21.204;2023-03-21T12:54:27;99916.75;;;10.00;100.00
22283;BME280;11310;51.528;21.204;2023-03-21T12:57:00;99923.50;;;10.05;100.00
22283;BME280;11310;51.528;21.204;2023-03-21T12:59:35;99929.47;;;10.09;100.00
22283;BME280;11310;51.528;21.204;2023-03-21T13:02:16;99921.63;;;10.09;100.00
22283;BME280;11310;51.528;21.204;2023-03-21T13:04:56;99917.72;;;10.17;100.00
22283;BME280;11310;51.528;21.204;2023-03-21T13:07:30;99915.66;;;10.24;100.00
22283;BME280;11310;51.528;21.204;2023-03-21T13:10:11;99918.28;;;10.24;100.00
22283;BME280;11310;51.528;21.204;2023-03-21T13:12:47;99923.38;;;10.27;100.00
22283;BME280;11310;51.528;21.204;2023-03-21T13:15:31;99916.28;;;10.29;100.00
22283;BME280;11310;51.528;21.204;2023-03-21T13:18:12;99915.22;;;10.33;100.00
22283;BME280;11310;51.528;21.204;2023-03-21T13:20:46;99914.31;;;10.34;100.00
22283;BME280;11310;51.528;21.204;2023-03-21T13:23:17;99918.47;;;10.38;100.00
22283;BME280;11310;51.528;21.204;2023-03-21T13:25:50;99915.16;;;10.34;100.00
22283;BME280;11310;51.528;21.204;2023-03-21T13:28:21;99912.81;;;10.47;100.00
22283;BME280;11310;51.528;21.204;2023-03-21T13:31:16;99924.50;;;10.58;100.00
22283;BME280;11310;51.528;21.204;2023-03-21T13:33:48;99927.75;;;10.63;100.00